sensor_id;sensor_type;location;lat;lon;timestamp;temperature;humidity
22781;DHT22;11557;50.884;4.322;2022-09-29T00:00:31;10.70;99.90
22781;DHT22;11557;50.884;4.322;2022-09-29T00:02:57;10.70;99.90
22781;DHT22;11557;50.884;4.322;2022-09-29T00:05:23;10.60;99.90
22781;DHT22;11557;50.884;4.322;2022-09-29T00:07:48;10.60;99.90
22781;DHT22;11557;50.884;4.322;2022-09-29T00:10:14;10.60;99.90
22781;DHT22;11557;50.884;4.322;2022-09-29T00:12:40;10.70;99.90
22781;DHT22;11557;50.884;4.322;2022-09-29T00:15:06;10.80;99.90
22781;DHT22;11557;50.884;4.322;2022-09-29T00:17:32;10.70;99.90
22781;DHT22;11557;50.884;4.322;2022-09-29T00:19:58;11.10;99.90
22781;DHT22;11557;50.884;4.322;2022-09-29T00:22:24;10.70;99.90
22781;DHT22;11557;50.884;4.322;2022-09-29T00:24:49;10.90;99.90
22781;DHT22;11557;50.884;4.322;2022-09-29T00:27:17;11.00;99.90
22781;DHT22;11557;50.884;4.322;2022-09-29T00:29:43;10.70;99.90
22781;DHT22;11557;50.884;4.322;2022-09-29T00:32:08;11.90;99.90
22781;DHT22;11557;50.884;4.322;2022-09-29T00:34:34;10.60;99.90
22781;DHT22;11557;50.884;4.322;2022-09-29T00:37:00;10.40;99.90
22781;DHT22;11557;50.884;4.322;2022-09-29T00:39:26;10.60;99.90
22781;DHT22;11557;50.884;4.322;2022-09-29T00:41:51;10.60;99.90
22781;DHT22;11557;50.884;4.322;2022-09-29T00:46:50;10.60;99.90
22781;DHT22;11557;50.884;4.322;2022-09-29T00:52:10;10.40;99.90
22781;DHT22;11557;50.884;4.322;2022-09-29T00:54:44;10.40;99.90
22781;DHT22;11557;50.884;4.322;2022-09-29T00:57:10;10.30;99.90
22781;DHT22;11557;50.884;4.322;2022-09-29T00:59:49;10.30;99.90
22781;DHT22;11557;50.884;4.322;2022-09-29T01:02:17;10.40;99.90
22781;DHT22;11557;50.884;4.322;2022-09-29T01:04:44;10.90;99.90
22781;DHT22;11557;50.884;4.322;2022-09-29T01:07:12;10.50;99.90
22781;DHT22;11557;50.884;4.322;2022-09-29T01:09:39;10.70;99.90
22781;DHT22;11557;50.884;4.322;2022-09-29T01:12:06;10.60;99.90
22781;DHT22;11557;50.884;4.322;2022-09-29T01:14:34;10.70;99.90
22781;DHT22;11557;50.884;4.322;2022-09-29T01:17:01;10.80;99.90
22781;DHT22;11557;50.884;4.322;2022-09-29T01:37:05;10.80;99.90
22781;DHT22;11557;50.884;4.322;2022-09-29T01:39:42;10.60;99.90
22781;DHT22;11557;50.884;4.322;2022-09-29T01:42:25;10.80;99.90
22781;DHT22;11557;50.884;4.322;2022-09-29T01:44:58;10.70;99.90
22781;DHT22;11557;50.884;4.322;2022-09-29T01:47:34;10.60;99.90
22781;DHT22;11557;50.884;4.322;2022-09-29T01:50:12;10.90;99.90
22781;DHT22;11557;50.884;4.322;2022-09-29T01:52:43;10.50;99.90
22781;DHT22;11557;50.884;4.322;2022-09-29T01:55:17;10.30;99.90
22781;DHT22;11557;50.884;4.322;2022-09-29T01:57:50;10.30;99.90
22781;DHT22;11557;50.884;4.322;2022-09-29T02:00:18;10.20;99.90
22781;DHT22;11557;50.884;4.322;2022-09-29T02:03:21;10.30;99.90
22781;DHT22;11557;50.884;4.322;2022-09-29T02:05:52;10.20;99.90
22781;DHT22;11557;50.884;4.322;2022-09-29T02:08:27;11.10;99.90
22781;DHT22;11557;50.884;4.322;2022-09-29T02:11:10;10.50;99.90
22781;DHT22;11557;50.884;4.322;2022-09-29T02:14:11;10.40;99.90
22781;DHT22;11557;50.884;4.322;2022-09-29T02:16:42;10.30;99.90
22781;DHT22;11557;50.884;4.322;2022-09-29T02:19:18;10.30;99.90
22781;DHT22;11557;50.884;4.322;2022-09-29T02:21:45;10.30;99.90
22781;DHT22;11557;50.884;4.322;2022-09-29T02:24:12;10.30;99.90
22781;DHT22;11557;50.884;4.322;2022-09-29T02:26:37;10.20;99.90
22781;DHT22;11557;50.884;4.322;2022-09-29T02:29:07;11.50;99.90
22781;DHT22;11557;50.884;4.322;2022-09-29T02:31:35;9.90;99.90
22781;DHT22;11557;50.884;4.322;2022-09-29T02:34:03;10.10;99.90
22781;DHT22;11557;50.884;4.322;2022-09-29T02:36:48;10.70;99.90
22781;DHT22;11557;50.884;4.322;2022-09-29T02:39:48;10.00;99.90
22781;DHT22;11557;50.884;4.322;2022-09-29T02:59:32;10.10;99.90
22781;DHT22;11557;50.884;4.322;2022-09-29T03:02:00;10.10;99.90
22781;DHT22;11557;50.884;4.322;2022-09-29T03:04:26;10.10;99.90
22781;DHT22;11557;50.884;4.322;2022-09-29T03:06:53;10.20;99.90
22781;DHT22;11557;50.884;4.322;2022-09-29T03:09:19;10.20;99.90
22781;DHT22;11557;50.884;4.322;2022-09-29T03:11:45;10.10;99.90
22781;DHT22;11557;50.884;4.322;2022-09-29T03:14:11;10.40;99.90
22781;DHT22;11557;50.884;4.322;2022-09-29T03:16:37;11.00;99.90
22781;DHT22;11557;50.884;4.322;2022-09-29T03:19:04;10.00;99.90
22781;DHT22;11557;50.884;4.322;2022-09-29T03:21:30;10.30;99.90
22781;DHT22;11557;50.884;4.322;2022-09-29T03:23:56;10.50;99.90
22781;DHT22;11557;50.884;4.322;2022-09-29T03:26:22;10.20;99.90
22781;DHT22;11557;50.884;4.322;2022-09-29T03:28:49;10.30;99.90
22781;DHT22;11557;50.884;4.322;2022-09-29T03:31:15;10.40;99.90
22781;DHT22;11557;50.884;4.322;2022-09-29T03:33:41;10.50;99.90
22781;DHT22;11557;50.884;4.322;2022-09-29T03:36:07;11.40;99.90
22781;DHT22;11557;50.884;4.322;2022-09-29T03:38:33;10.60;99.90
22781;DHT22;11557;50.884;4.322;2022-09-29T03:41:00;10.30;99.90
22781;DHT22;11557;50.884;4.322;2022-09-29T03:43:26;11.70;99.90
22781;DHT22;11557;50.884;4.322;2022-09-29T03:45:53;10.90;99.90
22781;DHT22;11557;50.884;4.322;2022-09-29T03:48:21;10.30;99.90
22781;DHT22;11557;50.884;4.322;2022-09-29T03:50:48;10.60;99.90
22781;DHT22;11557;50.884;4.322;2022-09-29T03:53:14;10.20;99.90
22781;DHT22;11557;50.884;4.322;2022-09-29T03:55:44;11.10;99.90
22781;DHT22;11557;50.884;4.322;2022-09-29T03:58:11;10.40;99.90
22781;DHT22;11557;50.884;4.322;2022-09-29T04:00:37;10.30;99.90
22781;DHT22;11557;50.884;4.322;2022-09-29T04:03:02;10.50;99.90
22781;DHT22;11557;50.884;4.322;2022-09-29T04:05:29;10.10;99.90
22781;DHT22;11557;50.884;4.322;2022-09-29T04:07:54;10.10;99.90
22781;DHT22;11557;50.884;4.322;2022-09-29T04:10:20;10.10;99.90
22781;DHT22;11557;50.884;4.322;2022-09-29T04:12:46;10.10;99.90
22781;DHT22;11557;50.884;4.322;2022-09-29T04:15:13;10.00;99.90
22781;DHT22;11557;50.884;4.322;2022-09-29T04:17:38;10.60;99.90
22781;DHT22;11557;50.884;4.322;2022-09-29T04:20:04;10.30;99.90
22781;DHT22;11557;50.884;4.322;2022-09-29T04:22:32;10.10;99.90
22781;DHT22;11557;50.884;4.322;2022-09-29T04:24:57;10.20;99.90
22781;DHT22;11557;50.884;4.322;2022-09-29T04:27:24;10.30;99.90
22781;DHT22;11557;50.884;4.322;2022-09-29T04:29:50;10.00;99.90
22781;DHT22;11557;50.884;4.322;2022-09-29T04:32:15;10.30;99.90
22781;DHT22;11557;50.884;4.322;2022-09-29T04:34:41;10.20;99.90
22781;DHT22;11557;50.884;4.322;2022-09-29T04:37:08;10.90;99.90
22781;DHT22;11557;50.884;4.322;2022-09-29T04:39:36;10.00;99.90
22781;DHT22;11557;50.884;4.322;2022-09-29T04:42:03;10.80;99.90
22781;DHT22;11557;50.884;4.322;2022-09-29T04:44:28;10.20;99.90
22781;DHT22;11557;50.884;4.322;2022-09-29T04:46:54;10.90;99.90
22781;DHT22;11557;50.884;4.322;2022-09-29T04:49:19;10.60;99.90
22781;DHT22;11557;50.884;4.322;2022-09-29T04:51:46;10.60;99.90
22781;DHT22;11557;50.884;4.322;2022-09-29T04:54:12;11.30;99.90
22781;DHT22;11557;50.884;4.322;2022-09-29T04:56:37;10.50;99.90
22781;DHT22;11557;50.884;4.322;2022-09-29T04:59:03;10.60;99.90
22781;DHT22;11557;50.884;4.322;2022-09-29T05:01:28;10.60;99.90
22781;DHT22;11557;50.884;4.322;2022-09-29T05:03:54;10.50;99.90
22781;DHT22;11557;50.884;4.322;2022-09-29T05:06:20;10.50;99.90
22781;DHT22;11557;50.884;4.322;2022-09-29T05:08:46;11.10;99.90
22781;DHT22;11557;50.884;4.322;2022-09-29T05:11:12;10.10;99.90
22781;DHT22;11557;50.884;4.322;2022-09-29T05:13:37;10.30;99.90
22781;DHT22;11557;50.884;4.322;2022-09-29T05:16:04;10.10;99.90
22781;DHT22;11557;50.884;4.322;2022-09-29T05:18:30;10.10;99.90
22781;DHT22;11557;50.884;4.322;2022-09-29T05:21:02;10.10;99.90
22781;DHT22;11557;50.884;4.322;2022-09-29T05:23:28;10.30;99.90
22781;DHT22;11557;50.884;4.322;2022-09-29T05:25:54;10.00;99.90
22781;DHT22;11557;50.884;4.322;2022-09-29T05:28:19;10.80;99.90
22781;DHT22;11557;50.884;4.322;2022-09-29T05:30:45;10.40;99.90
22781;DHT22;11557;50.884;4.322;2022-09-29T05:33:10;10.90;99.90
22781;DHT22;11557;50.884;4.322;2022-09-29T05:35:37;10.10;99.90
22781;DHT22;11557;50.884;4.322;2022-09-29T05:38:03;11.00;99.90
22781;DHT22;11557;50.884;4.322;2022-09-29T05:40:28;10.20;99.90
22781;DHT22;11557;50.884;4.322;2022-09-29T05:42:54;9.90;99.90
22781;DHT22;11557;50.884;4.322;2022-09-29T05:45:20;9.80;99.90
22781;DHT22;11557;50.884;4.322;2022-09-29T05:47:45;9.80;99.90
22781;DHT22;11557;50.884;4.322;2022-09-29T05:50:11;9.80;99.90
22781;DHT22;11557;50.884;4.322;2022-09-29T05:52:38;9.90;99.90
22781;DHT22;11557;50.884;4.322;2022-09-29T05:55:06;10.50;99.90
22781;DHT22;11557;50.884;4.322;2022-09-29T05:57:34;9.90;99.90
22781;DHT22;11557;50.884;4.322;2022-09-29T06:00:00;10.30;99.90
22781;DHT22;11557;50.884;4.322;2022-09-29T06:02:26;10.20;99.90
22781;DHT22;11557;50.884;4.322;2022-09-29T06:04:53;10.60;99.90
22781;DHT22;11557;50.884;4.322;2022-09-29T06:07:18;11.20;99.90
22781;DHT22;11557;50.884;4.322;2022-09-29T06:09:44;10.30;99.90
22781;DHT22;11557;50.884;4.322;2022-09-29T06:12:13;10.20;99.90
22781;DHT22;11557;50.884;4.322;2022-09-29T06:14:38;10.90;99.90
22781;DHT22;11557;50.884;4.322;2022-09-29T06:17:04;10.10;99.90
22781;DHT22;11557;50.884;4.322;2022-09-29T06:19:30;10.10;99.90
22781;DHT22;11557;50.884;4.322;2022-09-29T06:21:56;10.70;99.90
22781;DHT22;11557;50.884;4.322;2022-09-29T06:24:21;11.20;99.90
22781;DHT22;11557;50.884;4.322;2022-09-29T06:26:47;10.90;99.90
22781;DHT22;11557;50.884;4.322;2022-09-29T06:29:13;9.80;99.90
22781;DHT22;11557;50.884;4.322;2022-09-29T06:31:41;10.00;99.90
22781;DHT22;11557;50.884;4.322;2022-09-29T06:34:07;10.50;99.90
22781;DHT22;11557;50.884;4.322;2022-09-29T06:36:40;10.00;99.90
22781;DHT22;11557;50.884;4.322;2022-09-29T06:39:25;10.30;99.90
22781;DHT22;11557;50.884;4.322;2022-09-29T06:41:51;10.20;99.90
22781;DHT22;11557;50.884;4.322;2022-09-29T06:44:23;10.20;99.90
22781;DHT22;11557;50.884;4.322;2022-09-29T06:46:49;10.30;99.90
22781;DHT22;11557;50.884;4.322;2022-09-29T06:49:16;10.60;99.90
22781;DHT22;11557;50.884;4.322;2022-09-29T06:51:42;10.30;99.90
22781;DHT22;11557;50.884;4.322;2022-09-29T06:54:12;10.20;99.90
22781;DHT22;11557;50.884;4.322;2022-09-29T06:56:38;10.50;99.90
22781;DHT22;11557;50.884;4.322;2022-09-29T06:59:05;11.80;99.90
22781;DHT22;11557;50.884;4.322;2022-09-29T07:01:31;11.10;99.90
22781;DHT22;11557;50.884;4.322;2022-09-29T07:03:56;11.00;99.90
22781;DHT22;11557;50.884;4.322;2022-09-29T07:06:25;11.00;99.90
22781;DHT22;11557;50.884;4.322;2022-09-29T07:08:55;10.70;99.90
22781;DHT22;11557;50.884;4.322;2022-09-29T07:11:22;10.70;99.90
22781;DHT22;11557;50.884;4.322;2022-09-29T07:13:49;10.50;99.90
22781;DHT22;11557;50.884;4.322;2022-09-29T07:16:22;11.10;99.90
22781;DHT22;11557;50.884;4.322;2022-09-29T07:18:48;10.80;99.90
22781;DHT22;11557;50.884;4.322;2022-09-29T07:21:14;10.70;99.90
22781;DHT22;11557;50.884;4.322;2022-09-29T07:23:43;11.20;99.90
22781;DHT22;11557;50.884;4.322;2022-09-29T07:26:09;10.90;99.90
22781;DHT22;11557;50.884;4.322;2022-09-29T07:28:35;12.20;99.90
22781;DHT22;11557;50.884;4.322;2022-09-29T07:31:06;10.80;99.90
22781;DHT22;11557;50.884;4.322;2022-09-29T07:33:32;10.90;99.90
22781;DHT22;11557;50.884;4.322;2022-09-29T07:35:58;11.40;99.90
22781;DHT22;11557;50.884;4.322;2022-09-29T07:38:25;11.60;99.90
22781;DHT22;11557;50.884;4.322;2022-09-29T07:40:51;11.10;99.90
22781;DHT22;11557;50.884;4.322;2022-09-29T07:43:17;11.30;99.90
22781;DHT22;11557;50.884;4.322;2022-09-29T07:45:48;11.60;99.90
22781;DHT22;11557;50.884;4.322;2022-09-29T07:48:14;12.10;99.90
22781;DHT22;11557;50.884;4.322;2022-09-29T07:50:39;10.90;99.90
22781;DHT22;11557;50.884;4.322;2022-09-29T07:53:05;10.70;99.90
22781;DHT22;11557;50.884;4.322;2022-09-29T07:55:31;10.80;99.90
22781;DHT22;11557;50.884;4.322;2022-09-29T07:57:56;10.90;99.90
22781;DHT22;11557;50.884;4.322;2022-09-29T08:00:22;10.60;99.90
22781;DHT22;11557;50.884;4.322;2022-09-29T08:02:48;11.00;99.90
22781;DHT22;11557;50.884;4.322;2022-09-29T08:05:14;10.60;99.90
22781;DHT22;11557;50.884;4.322;2022-09-29T08:07:39;10.70;99.90
22781;DHT22;11557;50.884;4.322;2022-09-29T08:10:05;10.60;99.90
22781;DHT22;11557;50.884;4.322;2022-09-29T08:12:31;10.60;99.90
22781;DHT22;11557;50.884;4.322;2022-09-29T08:14:56;10.90;99.90
22781;DHT22;11557;50.884;4.322;2022-09-29T08:17:22;11.40;99.90
22781;DHT22;11557;50.884;4.322;2022-09-29T08:19:47;10.70;99.90
22781;DHT22;11557;50.884;4.322;2022-09-29T08:22:13;11.10;99.90
22781;DHT22;11557;50.884;4.322;2022-09-29T08:24:39;11.20;99.90
22781;DHT22;11557;50.884;4.322;2022-09-29T08:27:05;11.70;99.90
22781;DHT22;11557;50.884;4.322;2022-09-29T08:29:32;10.90;99.90
22781;DHT22;11557;50.884;4.322;2022-09-29T08:31:57;11.00;99.90
22781;DHT22;11557;50.884;4.322;2022-09-29T08:34:23;11.50;99.90
22781;DHT22;11557;50.884;4.322;2022-09-29T08:36:49;11.50;99.90
22781;DHT22;11557;50.884;4.322;2022-09-29T08:39:16;11.20;99.90
22781;DHT22;11557;50.884;4.322;2022-09-29T08:42:04;11.70;99.90
22781;DHT22;11557;50.884;4.322;2022-09-29T08:49:52;11.20;99.90
22781;DHT22;11557;50.884;4.322;2022-09-29T08:52:34;11.40;99.90
22781;DHT22;11557;50.884;4.322;2022-09-29T08:55:22;11.70;99.90
22781;DHT22;11557;50.884;4.322;2022-09-29T08:58:00;11.70;99.90
22781;DHT22;11557;50.884;4.322;2022-09-29T09:00:36;11.90;99.90
22781;DHT22;11557;50.884;4.322;2022-09-29T09:06:35;13.90;99.90
22781;DHT22;11557;50.884;4.322;2022-09-29T09:22:48;19.10;99.90
22781;DHT22;11557;50.884;4.322;2022-09-29T09:25:18;19.40;99.90
22781;DHT22;11557;50.884;4.322;2022-09-29T09:30:43;20.20;99.90
22781;DHT22;11557;50.884;4.322;2022-09-29T09:33:15;20.50;99.90
22781;DHT22;11557;50.884;4.322;2022-09-29T09:35:50;20.90;99.90
22781;DHT22;11557;50.884;4.322;2022-09-29T09:38:22;21.10;99.90
22781;DHT22;11557;50.884;4.322;2022-09-29T09:40:54;21.70;99.90
22781;DHT22;11557;50.884;4.322;2022-09-29T09:43:22;22.00;99.90
22781;DHT22;11557;50.884;4.322;2022-09-29T09:48:45;22.30;99.90
22781;DHT22;11557;50.884;4.322;2022-09-29T09:51:40;22.40;99.90
22781;DHT22;11557;50.884;4.322;2022-09-29T09:54:13;22.60;99.90
22781;DHT22;11557;50.884;4.322;2022-09-29T09:59:35;23.20;99.90
22781;DHT22;11557;50.884;4.322;2022-09-29T10:02:04;23.50;99.90
22781;DHT22;11557;50.884;4.322;2022-09-29T10:04:30;23.80;99.90
22781;DHT22;11557;50.884;4.322;2022-09-29T10:06:58;23.60;99.90
22781;DHT22;11557;50.884;4.322;2022-09-29T10:09:23;23.80;99.90
22781;DHT22;11557;50.884;4.322;2022-09-29T10:11:50;23.10;99.90
22781;DHT22;11557;50.884;4.322;2022-09-29T10:14:21;23.70;99.90
22781;DHT22;11557;50.884;4.322;2022-09-29T10:16:58;23.70;99.90
22781;DHT22;11557;50.884;4.322;2022-09-29T10:19:58;24.10;99.90
22781;DHT22;11557;50.884;4.322;2022-09-29T10:22:26;23.80;99.90
22781;DHT22;11557;50.884;4.322;2022-09-29T10:25:16;23.50;99.90
22781;DHT22;11557;50.884;4.322;2022-09-29T10:27:49;22.70;99.90
22781;DHT22;11557;50.884;4.322;2022-09-29T10:30:29;22.60;99.90
22781;DHT22;11557;50.884;4.322;2022-09-29T10:32:59;22.80;99.90
22781;DHT22;11557;50.884;4.322;2022-09-29T10:35:34;23.10;99.90
22781;DHT22;11557;50.884;4.322;2022-09-29T10:38:05;22.90;99.90
22781;DHT22;11557;50.884;4.322;2022-09-29T10:40:32;21.80;99.90
22781;DHT22;11557;50.884;4.322;2022-09-29T10:43:21;21.70;99.90
22781;DHT22;11557;50.884;4.322;2022-09-29T10:45:48;21.90;99.90
22781;DHT22;11557;50.884;4.322;2022-09-29T10:48:14;21.80;99.90
22781;DHT22;11557;50.884;4.322;2022-09-29T10:50:51;21.50;99.90
22781;DHT22;11557;50.884;4.322;2022-09-29T10:53:39;21.80;99.90
22781;DHT22;11557;50.884;4.322;2022-09-29T10:58:56;21.70;99.90
22781;DHT22;11557;50.884;4.322;2022-09-29T11:01:25;21.20;99.90
22781;DHT22;11557;50.884;4.322;2022-09-29T11:06:46;19.90;99.90
22781;DHT22;11557;50.884;4.322;2022-09-29T11:11:55;19.30;99.90
22781;DHT22;11557;50.884;4.322;2022-09-29T11:17:00;18.70;99.90
22781;DHT22;11557;50.884;4.322;2022-09-29T11:19:28;18.60;99.90
22781;DHT22;11557;50.884;4.322;2022-09-29T11:50:26;17.60;99.90
22781;DHT22;11557;50.884;4.322;2022-09-29T11:53:11;17.80;99.90
22781;DHT22;11557;50.884;4.322;2022-09-29T11:59:06;17.70;99.90
22781;DHT22;11557;50.884;4.322;2022-09-29T12:04:50;17.20;99.90
22781;DHT22;11557;50.884;4.322;2022-09-29T12:10:37;17.40;99.90
22781;DHT22;11557;50.884;4.322;2022-09-29T12:16:29;17.30;99.90
22781;DHT22;11557;50.884;4.322;2022-09-29T12:19:27;17.20;99.90
22781;DHT22;11557;50.884;4.322;2022-09-29T12:21:57;17.60;99.90
22781;DHT22;11557;50.884;4.322;2022-09-29T12:24:33;17.90;99.90
22781;DHT22;11557;50.884;4.322;2022-09-29T12:27:11;18.10;99.90
22781;DHT22;11557;50.884;4.322;2022-09-29T12:29:54;18.40;99.90
22781;DHT22;11557;50.884;4.322;2022-09-29T12:32:27;18.60;99.90
22781;DHT22;11557;50.884;4.322;2022-09-29T12:35:01;18.60;99.90
22781;DHT22;11557;50.884;4.322;2022-09-29T12:37:35;18.70;99.90
22781;DHT22;11557;50.884;4.322;2022-09-29T12:40:18;19.00;99.90
22781;DHT22;11557;50.884;4.322;2022-09-29T12:43:12;19.00;99.90
22781;DHT22;11557;50.884;4.322;2022-09-29T12:46:31;18.60;99.90
22781;DHT22;11557;50.884;4.322;2022-09-29T12:49:17;18.50;99.90
22781;DHT22;11557;50.884;4.322;2022-09-29T12:51:49;18.20;99.90
22781;DHT22;11557;50.884;4.322;2022-09-29T12:54:22;18.00;99.90
22781;DHT22;11557;50.884;4.322;2022-09-29T12:57:04;17.90;99.90
22781;DHT22;11557;50.884;4.322;2022-09-29T13:22:08;17.30;99.90
22781;DHT22;11557;50.884;4.322;2022-09-29T13:27:32;17.40;99.90
22781;DHT22;11557;50.884;4.322;2022-09-29T13:30:21;17.50;99.90
22781;DHT22;11557;50.884;4.322;2022-09-29T13:33:08;17.70;99.90
22781;DHT22;11557;50.884;4.322;2022-09-29T13:35:40;17.80;99.90
22781;DHT22;11557;50.884;4.322;2022-09-29T13:38:10;17.90;99.90
22781;DHT22;11557;50.884;4.322;2022-09-29T13:40:38;18.70;99.90
22781;DHT22;11557;50.884;4.322;2022-09-29T13:43:04;18.00;99.90
22781;DHT22;11557;50.884;4.322;2022-09-29T13:50:51;18.20;99.90
22781;DHT22;11557;50.884;4.322;2022-09-29T14:00:53;18.20;99.90
22781;DHT22;11557;50.884;4.322;2022-09-29T14:06:20;18.00;99.90
22781;DHT22;11557;50.884;4.322;2022-09-29T14:09:06;17.90;99.90
22781;DHT22;11557;50.884;4.322;2022-09-29T14:11:37;17.90;99.90
22781;DHT22;11557;50.884;4.322;2022-09-29T14:14:14;17.90;99.90
22781;DHT22;11557;50.884;4.322;2022-09-29T14:16:57;17.90;99.90
22781;DHT22;11557;50.884;4.322;2022-09-29T14:33:01;17.10;99.90
22781;DHT22;11557;50.884;4.322;2022-09-29T14:35:42;17.20;99.90
22781;DHT22;11557;50.884;4.322;2022-09-29T14:38:22;17.20;99.90
22781;DHT22;11557;50.884;4.322;2022-09-29T14:43:43;17.00;99.90
22781;DHT22;11557;50.884;4.322;2022-09-29T14:46:34;17.00;99.90
22781;DHT22;11557;50.884;4.322;2022-09-29T14:49:50;16.70;99.90
22781;DHT22;11557;50.884;4.322;2022-09-29T14:55:41;17.00;99.90
22781;DHT22;11557;50.884;4.322;2022-09-29T15:01:01;16.80;99.90
22781;DHT22;11557;50.884;4.322;2022-09-29T15:03:46;16.50;99.90
22781;DHT22;11557;50.884;4.322;2022-09-29T15:08:39;16.00;99.90
22781;DHT22;11557;50.884;4.322;2022-09-29T15:11:33;16.00;99.90
22781;DHT22;11557;50.884;4.322;2022-09-29T15:22:29;16.10;99.90
22781;DHT22;11557;50.884;4.322;2022-09-29T15:25:25;16.20;99.90
22781;DHT22;11557;50.884;4.322;2022-09-29T15:28:02;16.30;99.90
22781;DHT22;11557;50.884;4.322;2022-09-29T15:30:29;16.10;99.90
22781;DHT22;11557;50.884;4.322;2022-09-29T15:35:48;16.10;99.90
22781;DHT22;11557;50.884;4.322;2022-09-29T15:38:38;15.90;99.90
22781;DHT22;11557;50.884;4.322;2022-09-29T15:41:24;16.00;99.90
22781;DHT22;11557;50.884;4.322;2022-09-29T15:44:01;15.90;99.90
22781;DHT22;11557;50.884;4.322;2022-09-29T15:46:36;15.70;99.90
22781;DHT22;11557;50.884;4.322;2022-09-29T15:49:06;15.90;99.90
22781;DHT22;11557;50.884;4.322;2022-09-29T15:51:36;15.90;99.90
22781;DHT22;11557;50.884;4.322;2022-09-29T15:54:03;15.80;99.90
22781;DHT22;11557;50.884;4.322;2022-09-29T15:56:42;15.80;99.90
22781;DHT22;11557;50.884;4.322;2022-09-29T15:59:59;15.90;99.90
22781;DHT22;11557;50.884;4.322;2022-09-29T16:02:30;16.00;99.90
22781;DHT22;11557;50.884;4.322;2022-09-29T16:05:05;16.00;99.90
22781;DHT22;11557;50.884;4.322;2022-09-29T16:07:37;16.00;99.90
22781;DHT22;11557;50.884;4.322;2022-09-29T16:10:24;16.10;99.90
22781;DHT22;11557;50.884;4.322;2022-09-29T16:13:05;16.00;99.90
22781;DHT22;11557;50.884;4.322;2022-09-29T16:15:45;16.00;99.90
22781;DHT22;11557;50.884;4.322;2022-09-29T16:18:22;16.00;99.90
22781;DHT22;11557;50.884;4.322;2022-09-29T16:20:52;16.00;99.90
22781;DHT22;11557;50.884;4.322;2022-09-29T16:26:11;16.00;99.90
22781;DHT22;11557;50.884;4.322;2022-09-29T16:28:56;15.90;99.90
22781;DHT22;11557;50.884;4.322;2022-09-29T16:31:26;15.90;99.90
22781;DHT22;11557;50.884;4.322;2022-09-29T16:33:56;16.20;99.90
22781;DHT22;11557;50.884;4.322;2022-09-29T16:36:25;16.20;99.90
22781;DHT22;11557;50.884;4.322;2022-09-29T16:38:55;16.20;99.90
22781;DHT22;11557;50.884;4.322;2022-09-29T16:41:36;16.20;99.90
22781;DHT22;11557;50.884;4.322;2022-09-29T16:44:23;15.60;99.90
22781;DHT22;11557;50.884;4.322;2022-09-29T16:49:56;15.40;99.90
22781;DHT22;11557;50.884;4.322;2022-09-29T16:52:59;15.20;99.90
22781;DHT22;11557;50.884;4.322;2022-09-29T16:55:24;15.30;99.90
22781;DHT22;11557;50.884;4.322;2022-09-29T16:58:11;15.30;99.90
22781;DHT22;11557;50.884;4.322;2022-09-29T17:00:42;15.30;99.90
22781;DHT22;11557;50.884;4.322;2022-09-29T17:03:10;15.20;99.90
22781;DHT22;11557;50.884;4.322;2022-09-29T17:05:42;15.30;99.90
22781;DHT22;11557;50.884;4.322;2022-09-29T17:08:23;15.30;99.90
22781;DHT22;11557;50.884;4.322;2022-09-29T17:10:50;15.20;99.90
22781;DHT22;11557;50.884;4.322;2022-09-29T17:13:17;15.30;99.90
22781;DHT22;11557;50.884;4.322;2022-09-29T17:15:45;15.20;99.90
22781;DHT22;11557;50.884;4.322;2022-09-29T17:18:14;15.40;99.90
22781;DHT22;11557;50.884;4.322;2022-09-29T17:20:41;15.40;99.90
22781;DHT22;11557;50.884;4.322;2022-09-29T17:23:09;15.50;99.90
22781;DHT22;11557;50.884;4.322;2022-09-29T17:25:40;15.40;99.90
22781;DHT22;11557;50.884;4.322;2022-09-29T17:28:15;15.30;99.90
22781;DHT22;11557;50.884;4.322;2022-09-29T17:30:46;15.30;99.90
22781;DHT22;11557;50.884;4.322;2022-09-29T17:33:14;15.00;99.90
22781;DHT22;11557;50.884;4.322;2022-09-29T17:35:46;14.90;99.90
22781;DHT22;11557;50.884;4.322;2022-09-29T17:38:13;15.10;99.90
22781;DHT22;11557;50.884;4.322;2022-09-29T17:40:56;15.00;99.90
22781;DHT22;11557;50.884;4.322;2022-09-29T17:43:22;15.00;99.90
22781;DHT22;11557;50.884;4.322;2022-09-29T17:45:49;14.90;99.90
22781;DHT22;11557;50.884;4.322;2022-09-29T17:48:15;15.70;99.90
22781;DHT22;11557;50.884;4.322;2022-09-29T17:50:51;15.00;99.90
22781;DHT22;11557;50.884;4.322;2022-09-29T17:53:19;14.70;99.90
22781;DHT22;11557;50.884;4.322;2022-09-29T17:55:48;14.60;99.90
22781;DHT22;11557;50.884;4.322;2022-09-29T17:58:17;14.60;99.90
22781;DHT22;11557;50.884;4.322;2022-09-29T18:00:52;14.50;99.90
22781;DHT22;11557;50.884;4.322;2022-09-29T18:03:19;15.10;99.90
22781;DHT22;11557;50.884;4.322;2022-09-29T18:05:50;14.40;99.90
22781;DHT22;11557;50.884;4.322;2022-09-29T18:08:25;14.60;99.90
22781;DHT22;11557;50.884;4.322;2022-09-29T18:10:56;14.70;99.90
22781;DHT22;11557;50.884;4.322;2022-09-29T18:13:24;14.80;99.90
22781;DHT22;11557;50.884;4.322;2022-09-29T18:15:52;14.60;99.90
22781;DHT22;11557;50.884;4.322;2022-09-29T18:18:19;15.90;99.90
22781;DHT22;11557;50.884;4.322;2022-09-29T18:20:46;14.80;99.90
22781;DHT22;11557;50.884;4.322;2022-09-29T18:23:16;14.80;99.90
22781;DHT22;11557;50.884;4.322;2022-09-29T18:25:44;14.80;99.90
22781;DHT22;11557;50.884;4.322;2022-09-29T18:28:13;14.80;99.90
22781;DHT22;11557;50.884;4.322;2022-09-29T18:30:46;14.90;99.90
22781;DHT22;11557;50.884;4.322;2022-09-29T18:33:18;15.10;99.90
22781;DHT22;11557;50.884;4.322;2022-09-29T18:35:50;15.70;99.90
22781;DHT22;11557;50.884;4.322;2022-09-29T18:38:20;15.00;99.90
22781;DHT22;11557;50.884;4.322;2022-09-29T18:40:45;14.90;99.90
22781;DHT22;11557;50.884;4.322;2022-09-29T18:43:12;15.00;99.90
22781;DHT22;11557;50.884;4.322;2022-09-29T18:45:38;15.00;99.90
22781;DHT22;11557;50.884;4.322;2022-09-29T18:48:11;15.00;99.90
22781;DHT22;11557;50.884;4.322;2022-09-29T18:50:42;15.10;99.90
22781;DHT22;11557;50.884;4.322;2022-09-29T18:53:08;15.00;99.90
22781;DHT22;11557;50.884;4.322;2022-09-29T18:55:36;14.70;99.90
22781;DHT22;11557;50.884;4.322;2022-09-29T18:58:04;15.00;99.90
22781;DHT22;11557;50.884;4.322;2022-09-29T19:00:33;15.00;99.90
22781;DHT22;11557;50.884;4.322;2022-09-29T19:03:00;14.70;99.90
22781;DHT22;11557;50.884;4.322;2022-09-29T19:05:28;14.80;99.90
22781;DHT22;11557;50.884;4.322;2022-09-29T19:07:56;14.80;99.90
22781;DHT22;11557;50.884;4.322;2022-09-29T19:10:26;14.80;99.90
22781;DHT22;11557;50.884;4.322;2022-09-29T19:12:57;14.70;99.90
22781;DHT22;11557;50.884;4.322;2022-09-29T19:15:26;14.70;99.90
22781;DHT22;11557;50.884;4.322;2022-09-29T19:17:52;14.50;99.90
22781;DHT22;11557;50.884;4.322;2022-09-29T19:20:24;14.80;99.90